Time;durP1;ratioP1;P1;durP2;ratioP2;P2;SDS_P1;SDS_P2;PMS_P1;PMS_P2;Temp;Humidity;BMP_temperature;BMP_pressure;BME280_temperature;BME280_humidity;BME280_pressure;Samples;Min_cycle;Max_cycle;Signal;HPM_P1;HPM_P2
2022/11/08 06:58:14;;;;;;;54.30;32.25;;;;;;;0.60;98.01;100858.00;1769809;78;21657;-46
2022/11/08 07:01:07;;;;;;;49.63;28.73;;;;;;;0.64;97.62;100853.48;1775895;78;21178;-42
2022/11/08 07:03:34;;;;;;;58.42;35.65;;;;;;;0.64;97.18;100849.99;1732805;79;21110;-46
2022/11/08 07:06:02;;;;;;;57.03;33.53;;;;;;;0.61;97.33;100857.18;1774552;78;21017;-39
2022/11/08 07:08:40;;;;;;;69.92;36.15;;;;;;;0.64;97.75;100862.50;1777640;79;21964;-47
2022/11/08 07:11:21;;;;;;;69.37;36.33;;;;;;;0.66;97.97;100863.44;1753671;79;21032;-39
2022/11/08 07:14:01;;;;;;;62.00;34.30;;;;;;;0.75;98.56;100863.91;1711222;81;21354;-46
2022/11/08 07:16:38;;;;;;;59.77;34.55;;;;;;;0.89;98.72;100867.13;1739217;79;21792;-47
2022/11/08 07:20:03;;;;;;;;;;;;;;;;;;;;;
2022/11/08 07:26:59;;;;;;;57.73;34.13;;;;;;;1.27;98.33;100873.19;1744446;80;21091;-47
2022/11/08 07:29:53;;;;;;;57.33;32.75;;;;;;;1.43;98.32;100880.82;1719952;81;21056;-48
2022/11/08 07:32:51;;;;;;;66.55;35.35;;;;;;;1.54;98.03;100874.45;1749331;79;21102;-39
2022/11/08 07:58:16;;;;;;;56.80;36.95;;;;;;;2.90;94.56;100857.45;1773500;79;23049;-45
2022/11/08 08:00:44;;;;;;;65.17;38.17;;;;;;;2.98;93.90;100863.78;1747013;80;21075;-38
2022/11/08 08:07:11;;;;;;;58.95;38.08;;;;;;;2.92;93.26;100857.09;1733268;80;21055;-38
2022/11/08 08:09:39;;;;;;;62.98;38.73;;;;;;;2.97;93.93;100859.86;1728612;81;21527;-47
2022/11/08 08:12:07;;;;;;;58.48;36.03;;;;;;;3.07;94.13;100859.38;1730560;81;21273;-46
2022/11/08 08:14:39;;;;;;;59.13;37.63;;;;;;;3.18;94.14;100862.84;1717059;80;21026;-39
2022/11/08 08:17:08;;;;;;;66.25;38.50;;;;;;;3.30;94.04;100861.55;1700936;80;21060;-46
2022/11/08 08:19:39;;;;;;;65.22;37.95;;;;;;;3.41;93.53;100858.97;1719591;81;21051;-47
2022/11/08 08:22:20;;;;;;;67.47;37.63;;;;;;;3.51;93.43;100853.32;1697451;82;21620;-39
2022/11/08 08:25:06;;;;;;;65.70;39.05;;;;;;;3.57;92.64;100849.66;1721827;81;21054;-39
2022/11/08 08:27:33;;;;;;;64.92;38.30;;;;;;;3.59;92.75;100862.23;1719275;81;21105;-47
2022/11/08 08:29:59;;;;;;;62.55;36.88;;;;;;;3.65;92.99;100863.78;1708712;81;21017;-39
2022/11/08 08:32:33;;;;;;;66.02;39.45;;;;;;;3.72;93.29;100865.77;1719495;81;21733;-39
2022/11/08 08:35:02;;;;;;;70.42;38.92;;;;;;;3.82;93.40;100858.31;1729487;80;21002;-47
2022/11/08 08:37:29;;;;;;;68.65;37.33;;;;;;;3.93;93.52;100861.75;1715760;80;21096;-39
2022/11/08 08:39:55;;;;;;;65.17;37.53;;;;;;;4.08;93.27;100858.84;1721311;80;21092;-45
2022/11/08 08:42:22;;;;;;;62.67;38.80;;;;;;;4.22;93.17;100852.41;1731895;81;21717;-47
2022/11/08 08:44:49;;;;;;;60.95;37.63;;;;;;;4.36;93.08;100848.14;1724351;81;21355;-47
2022/11/08 08:47:16;;;;;;;68.45;39.95;;;;;;;4.47;92.64;100848.09;1713938;81;21442;-46
2022/11/08 08:49:43;;;;;;;67.25;41.48;;;;;;;4.57;92.78;100846.66;1720503;80;21148;-46
2022/11/08 08:52:21;;;;;;;72.05;41.85;;;;;;;4.69;92.77;100842.75;1732694;81;21114;-39
2022/11/08 08:54:54;;;;;;;64.25;39.45;;;;;;;4.81;92.70;100837.08;1693142;81;21029;-46
2022/11/08 08:57:21;;;;;;;68.45;41.28;;;;;;;4.91;92.09;100834.37;1730603;80;21589;-37
2022/11/08 08:59:49;;;;;;;73.35;43.20;;;;;;;4.95;91.70;100834.52;1703573;81;20979;-38
2022/11/08 09:02:22;;;;;;;70.05;40.03;;;;;;;5.05;91.83;100827.49;1715939;80;21081;-38
2022/11/08 09:04:51;;;;;;;72.35;41.70;;;;;;;5.15;91.79;100822.15;1660738;83;21400;-38
2022/11/08 09:07:49;;;;;;;67.97;38.63;;;;;;;5.27;91.50;100826.82;1648937;84;21057;-38
2022/11/08 09:10:20;;;;;;;71.28;43.30;;;;;;;5.33;91.49;100834.40;1697355;80;21368;-47
2022/11/08 09:12:48;;;;;;;79.20;43.63;;;;;;;5.33;90.57;100821.81;1722601;80;21614;-47
2022/11/08 09:15:15;;;;;;;77.12;44.08;;;;;;;5.27;91.00;100813.42;1721238;82;21462;-47
2022/11/08 09:17:42;;;;;;;67.50;41.98;;;;;;;5.32;91.59;100820.94;1719121;81;21031;-50
2022/11/08 09:20:11;;;;;;;63.23;40.78;;;;;;;5.43;91.98;100816.48;1709536;81;21108;-48
2022/11/08 09:22:39;;;;;;;59.40;37.75;;;;;;;5.54;92.10;100811.19;1670933;84;21050;-49
2022/11/08 09:25:09;;;;;;;74.27;42.90;;;;;;;5.60;91.16;100810.06;1666618;83;21198;-46
2022/11/08 09:27:36;;;;;;;68.97;40.52;;;;;;;5.60;91.16;100805.74;1666027;84;21475;-47
2022/11/08 09:30:03;;;;;;;65.70;40.20;;;;;;;5.66;91.60;100802.86;1658752;84;21565;-47
2022/11/08 09:32:30;;;;;;;66.05;41.23;;;;;;;5.73;91.54;100802.19;1628137;84;21611;-47
2022/11/08 09:34:57;;;;;;;63.70;40.43;;;;;;;5.78;91.50;100796.28;1666975;83;21010;-47
2022/11/08 09:37:24;;;;;;;65.22;39.63;;;;;;;5.81;90.74;100798.98;1660112;84;21498;-47
2022/11/08 09:39:50;;;;;;;66.95;40.30;;;;;;;5.83;90.63;100790.80;1651430;84;21349;-48
2022/11/08 09:42:32;;;;;;;68.83;40.00;;;;;;;5.86;90.94;100786.13;1671354;83;21566;-47
2022/11/08 09:45:25;;;;;;;66.47;40.03;;;;;;;5.94;91.08;100796.74;1657102;84;21070;-48
2022/11/08 09:47:59;;;;;;;59.05;34.98;;;;;;;6.04;90.77;100786.64;1718283;81;21497;-48
2022/11/08 09:50:43;;;;;;;67.03;40.17;;;;;;;6.13;90.51;100788.16;1723093;82;21011;-47
2022/11/08 09:53:34;;;;;;;57.10;36.85;;;;;;;6.21;90.08;100777.98;1727436;82;21032;-47
2022/11/08 09:56:22;;;;;;;57.80;32.17;;;;;;;6.35;90.13;100780.91;1719315;82;21098;-47
2022/11/08 09:59:28;;;;;;;46.77;31.10;;;;;;;6.52;89.91;100774.41;1721423;81;21590;-48
2022/11/08 10:01:55;;;;;;;57.80;29.40;;;;;;;6.69;89.40;100777.41;1723368;80;21506;-47
2022/11/08 10:04:25;;;;;;;46.35;31.20;;;;;;;6.88;88.13;100782.59;1697304;81;21022;-47
2022/11/08 10:07:23;;;;;;;50.43;29.48;;;;;;;6.97;88.02;100784.55;1724578;80;21637;-48
2022/11/08 10:10:28;;;;;;;44.45;27.87;;;;;;;7.08;87.97;100788.27;1733967;80;21098;-47
2022/11/08 10:13:23;;;;;;;44.38;28.02;;;;;;;7.20;87.24;100780.30;1707934;81;21039;-48
2022/11/08 10:16:12;;;;;;;46.20;28.40;;;;;;;7.27;86.42;100773.48;1716948;81;21030;-47
2022/11/08 10:19:01;;;;;;;44.48;29.07;;;;;;;7.31;86.25;100770.11;1716658;81;21739;-47
2022/11/08 10:21:57;;;;;;;40.45;26.97;;;;;;;7.40;85.79;100762.47;1731295;80;21475;-39
2022/11/08 10:24:38;;;;;;;38.02;25.57;;;;;;;7.72;86.05;100761.81;1731002;81;21474;-47
2022/11/08 10:27:16;;;;;;;35.15;25.25;;;;;;;8.35;85.52;100759.41;1734706;80;21053;-48
2022/11/08 10:29:46;;;;;;;41.18;25.75;;;;;;;9.17;83.85;100755.47;1712929;80;21046;-39
2022/11/08 10:32:21;;;;;;;37.78;25.20;;;;;;;9.91;80.14;100746.70;1724914;81;21002;-47
2022/11/08 10:35:05;;;;;;;35.52;22.65;;;;;;;10.29;77.92;100747.53;1708404;81;21549;-48
2022/11/08 10:37:33;;;;;;;37.45;23.95;;;;;;;10.40;75.45;100748.50;1722356;81;21972;-40
2022/11/08 10:40:21;;;;;;;36.33;24.20;;;;;;;10.44;74.74;100739.82;1724448;81;21684;-46
2022/11/08 10:43:12;;;;;;;27.27;21.17;;;;;;;10.70;74.18;100744.34;1726542;80;20931;-42
2022/11/08 10:45:46;;;;;;;34.35;23.00;;;;;;;11.20;72.93;100738.09;1717568;81;21044;-39
2022/11/08 10:48:34;;;;;;;32.75;20.55;;;;;;;11.77;71.14;100736.95;1727075;81;21068;-40
2022/11/08 10:51:43;;;;;;;31.57;20.62;;;;;;;12.28;69.56;100736.60;1720681;80;21852;-40
2022/11/08 10:54:46;;;;;;;37.70;20.62;;;;;;;12.40;67.06;100727.41;1674520;83;21089;-47
2022/11/08 10:57:33;;;;;;;23.27;17.62;;;;;;;12.47;66.59;100712.13;1710197;81;21396;-47
2022/11/08 11:00:23;;;;;;;37.73;21.25;;;;;;;12.69;65.74;100711.63;1706128;81;21531;-48
2022/11/08 11:03:10;;;;;;;28.57;20.95;;;;;;;12.82;65.43;100708.12;1709352;81;21050;-48
2022/11/08 11:05:56;;;;;;;39.95;21.57;;;;;;;12.84;64.53;100708.10;1717215;80;20999;-47
2022/11/08 11:08:23;;;;;;;35.35;20.70;;;;;;;12.66;64.32;100707.27;1691871;82;21034;-39
2022/11/08 11:10:51;;;;;;;28.62;18.92;;;;;;;12.59;64.50;100706.85;1674529;83;21100;-51
2022/11/08 11:13:29;;;;;;;33.63;19.10;;;;;;;12.57;64.37;100706.41;1717197;81;21002;-51
2022/11/08 11:15:59;;;;;;;28.17;18.55;;;;;;;12.75;64.21;100699.80;1717508;81;21483;-48
2022/11/08 11:18:46;;;;;;;27.37;18.75;;;;;;;13.01;63.19;100704.55;1724898;81;21089;-43
2022/11/08 11:21:18;;;;;;;26.73;18.17;;;;;;;13.05;62.57;100698.41;1704119;80;21099;-40
2022/11/08 11:23:58;;;;;;;21.15;14.33;;;;;;;13.16;62.57;100697.06;1692062;82;21657;-49
2022/11/08 11:26:33;;;;;;;19.30;11.40;;;;;;;13.35;61.39;100700.95;1608492;84;21088;-48
2022/11/08 11:29:27;;;;;;;22.05;11.08;;;;;;;13.43;60.30;100699.14;1729030;80;21907;-49
2022/11/08 11:31:55;;;;;;;15.60;10.43;;;;;;;13.51;59.64;100702.17;1721975;80;21653;-48
2022/11/08 11:34:27;;;;;;;13.72;10.40;;;;;;;13.44;59.51;100703.51;1730631;81;21603;-49
2022/11/08 11:37:06;;;;;;;12.78;9.08;;;;;;;13.46;59.38;100700.45;1729622;81;21431;-41
2022/11/08 11:39:54;;;;;;;11.08;9.55;;;;;;;13.53;60.01;100692.95;1720384;81;21520;-40
2022/11/08 11:42:49;;;;;;;15.40;10.82;;;;;;;13.62;58.72;100698.14;1704961;81;21127;-47
2022/11/08 11:45:25;;;;;;;18.05;10.18;;;;;;;13.49;58.61;100702.61;1722660;81;21042;-40
2022/11/08 11:47:55;;;;;;;12.93;10.28;;;;;;;13.27;59.00;100699.20;1693932;81;21465;-42
2022/11/08 11:50:40;;;;;;;16.40;11.22;;;;;;;12.98;59.37;100701.05;1672910;83;20969;-48
2022/11/08 11:53:27;;;;;;;26.10;13.43;;;;;;;12.69;60.55;100702.44;1658805;84;21105;-48
2022/11/08 11:56:23;;;;;;;14.00;9.98;;;;;;;12.61;60.99;100710.78;1694730;82;21041;-41
2022/11/08 11:59:04;;;;;;;13.68;9.40;;;;;;;12.82;60.88;100708.56;1647303;84;21111;-40
2022/11/08 12:02:12;;;;;;;27.73;15.68;;;;;;;13.10;59.24;100718.52;1672352;83;21029;-50
2022/11/08 12:05:06;;;;;;;23.30;13.08;;;;;;;13.24;58.78;100718.94;1672109;83;21528;-48
2022/11/08 12:07:33;;;;;;;15.10;10.10;;;;;;;13.37;58.39;100709.69;1687378;82;21106;-49
2022/11/08 12:10:21;;;;;;;16.17;8.80;;;;;;;13.25;57.90;100711.93;1734409;80;21005;-41
2022/11/08 12:12:59;;;;;;;12.25;8.05;;;;;;;13.14;58.22;100711.06;1721270;81;21032;-43
2022/11/08 12:15:55;;;;;;;14.35;9.00;;;;;;;13.45;58.79;100706.16;1715586;81;21041;-42
2022/11/08 12:18:41;;;;;;;14.00;10.05;;;;;;;13.84;57.26;100706.77;1729018;81;21080;-48
2022/11/08 12:21:27;;;;;;;17.80;9.93;;;;;;;13.99;56.60;100707.99;1717082;81;21415;-48
2022/11/08 12:24:15;;;;;;;12.10;9.03;;;;;;;14.08;56.28;100709.66;1710950;81;21532;-48
2022/11/08 12:27:05;;;;;;;12.78;9.93;;;;;;;14.01;55.84;100709.28;1717773;82;21015;-48
2022/11/08 12:29:53;;;;;;;13.80;9.15;;;;;;;13.82;55.30;100704.61;1715403;82;21086;-41
2022/11/08 12:32:51;;;;;;;12.13;8.13;;;;;;;13.29;56.32;100709.73;1727717;82;21006;-40
2022/11/08 12:35:32;;;;;;;12.73;8.00;;;;;;;12.74;57.82;100714.68;1711818;82;21554;-48
2022/11/08 12:38:21;;;;;;;16.77;11.57;;;;;;;12.44;59.19;100715.61;1737000;82;21575;-48
2022/11/08 12:40:58;;;;;;;11.88;9.03;;;;;;;12.28;59.88;100715.61;1633986;86;21123;-41
2022/11/08 12:43:48;;;;;;;15.48;9.25;;;;;;;12.13;60.49;100711.27;1626912;85;21620;-48
2022/11/08 12:46:18;;;;;;;15.25;8.83;;;;;;;12.10;60.49;100717.80;1638090;85;21517;-49
2022/11/08 12:49:07;;;;;;;17.77;9.58;;;;;;;11.98;60.94;100716.05;1575593;89;21056;-42
2022/11/08 12:52:03;;;;;;;15.10;9.73;;;;;;;11.89;61.71;100709.06;1581036;88;21141;-48
2022/11/08 12:54:37;;;;;;;14.80;8.58;;;;;;;12.01;61.38;100713.88;1577589;89;21073;-47
2022/11/08 12:57:09;;;;;;;13.13;8.68;;;;;;;12.25;61.11;100719.13;1624293;86;21130;-49
2022/11/08 12:59:46;;;;;;;25.68;17.57;;;;;;;12.29;60.67;100719.98;1599683;89;21111;-48
2022/11/08 13:02:25;;;;;;;15.78;10.50;;;;;;;12.08;61.09;100717.81;1594132;88;21177;-41
2022/11/08 13:05:33;;;;;;;22.90;13.58;;;;;;;11.85;60.82;100720.84;1600237;88;21075;-41
2022/11/08 13:08:14;;;;;;;16.00;10.45;;;;;;;11.57;61.17;100726.42;1586749;88;21067;-48
2022/11/08 13:10:56;;;;;;;15.48;8.93;;;;;;;11.25;62.32;100727.20;1595584;88;21681;-48
2022/11/08 13:13:33;;;;;;;11.48;7.67;;;;;;;11.07;63.09;100730.59;1585662;88;21076;-41
2022/11/08 13:16:16;;;;;;;14.95;10.05;;;;;;;10.96;63.45;100728.78;1600093;88;21146;-49
2022/11/08 13:18:56;;;;;;;12.90;9.08;;;;;;;10.88;63.90;100723.08;1636272;84;21013;-49
2022/11/08 13:21:37;;;;;;;18.45;10.35;;;;;;;10.81;64.10;100730.90;1657065;85;21137;-48
2022/11/08 13:24:06;;;;;;;15.20;9.85;;;;;;;10.68;64.40;100735.19;1665957;85;21607;-48
2022/11/08 13:26:33;;;;;;;14.07;9.98;;;;;;;10.51;64.75;100735.07;1643897;85;21774;-48
2022/11/08 13:29:20;;;;;;;16.15;9.75;;;;;;;10.32;65.40;100731.84;1673296;85;21544;-40
2022/11/08 13:32:02;;;;;;;17.23;8.25;;;;;;;10.12;66.09;100732.53;1662253;84;21060;-48
2022/11/08 13:34:55;;;;;;;12.68;8.53;;;;;;;9.99;66.79;100738.96;1693538;84;21031;-41
